Jones, AL (36749)

10:27 PM CDT on July 03, 2015 (GMT -0500)
Friendship | | Change Station
CLOSE
Current Station
Personal Weather Station
Location: Prattville, AL
Elevation: 482 ft
Nearby Weather Stations

Elev 482 ft 32.53 °N, 86.54 °W | Updated 7 minutes ago

Overcast
Overcast
74.1 °F
Feels Like 75 °F
N
0.0
Wind Variable Wind from ENE

Today
High -- | Low -- °F
--% Chance of Precip.
Yesterday
High -- | Low -- °F
Precip. -- in
5:44 AM 7:58 PM
Waning Gibbous, 95% visible
Pressure 30.01 in
Visibility 10.0 miles
Clouds Scattered Clouds 5500 ft
Scattered Clouds 11000 ft
Mostly Cloudy 21000 ft
Heat Index 75 °F
Dew Point 67 °F
Humidity 78%
Rainfall 0.00 in
Snow Depth Not available.
UV 0 out of 12
Pollen 2.80 out of 12
Air Quality Not available.
Flu Activity Not available.
SPECI KMXF 040317Z AUTO 35001KT 10SM TS SCT055 SCT110 BKN210 24/21 A3001 RMK AO2 LTG DSNT W TSB17

More Conditions Fewer Conditions

Pressure 30.01 in
Visibility 10.0 miles
Clouds Scattered Clouds 5500 ft
Scattered Clouds 11000 ft
Mostly Cloudy 21000 ft
Heat Index 75 °F
Dew Point 67 °F
Humidity 78%
Rainfall 0.00 in
Snow Depth Not available.
UV 0 out of 12
Pollen 2.80 out of 12
Air Quality Not available.
Flu Activity Not available.
SPECI KMXF 040317Z AUTO 35001KT 10SM TS SCT055 SCT110 BKN210 24/21 A3001 RMK AO2 LTG DSNT W TSB17

More Conditions Fewer Conditions

10-Day Weather Forecast

×

Almanac

Astronomy

Jul. 03, 2015 Rise Set
Actual Time
Civil Twilight
Nautical Twilight
Astronomical Twilight
Moon
Length of Visible Light
Length of Day
Tomorrow will be .
, % of the Moon is Illuminated

Today's Extremes

State Highs State Lows

Community

WunderPhotos

Upload Photos

1,834,911 photos uploaded!

WunderBlogs® & News

Nearby

Air Quality

  Air Quality AQ Index Pollutant
Not available.

Snow Depth

Station Depth Elevation

Earthquake Activity

City Distance Mag. Time & Date
Minimum magnitude displayed is 2.5.

Coastal Water Temperatures

Place Temperature

Stations

Nearby Weather Stations

Station Location Temp. Windchill Dew Point Humidity Wind Precip. Elev Updated Type